sensor_id;sensor_type;location;lat;lon;timestamp;P1;durP1;ratioP1;P2;durP2;ratioP2
28934;SDS011;16044;52.726;-2.108;2023-03-01T00:01:30;8.82;;;2.67;;
28934;SDS011;16044;52.726;-2.108;2023-03-01T00:03:58;6.70;;;2.28;;
28934;SDS011;16044;52.726;-2.108;2023-03-01T00:06:26;8.57;;;2.53;;
28934;SDS011;16044;52.726;-2.108;2023-03-01T00:08:54;7.93;;;2.40;;
28934;SDS011;16044;52.726;-2.108;2023-03-01T00:11:26;8.15;;;2.97;;
28934;SDS011;16044;52.726;-2.108;2023-03-01T00:13:57;9.05;;;3.70;;
28934;SDS011;16044;52.726;-2.108;2023-03-01T00:16:28;10.20;;;3.40;;
28934;SDS011;16044;52.726;-2.108;2023-03-01T00:19:00;10.25;;;3.63;;
28934;SDS011;16044;52.726;-2.108;2023-03-01T00:21:27;9.20;;;3.33;;
28934;SDS011;16044;52.726;-2.108;2023-03-01T00:23:55;12.45;;;3.60;;
28934;SDS011;16044;52.726;-2.108;2023-03-01T00:26:23;11.80;;;3.65;;
28934;SDS011;16044;52.726;-2.108;2023-03-01T00:28:52;11.20;;;3.60;;
28934;SDS011;16044;52.726;-2.108;2023-03-01T00:31:21;11.40;;;3.97;;
28934;SDS011;16044;52.726;-2.108;2023-03-01T00:33:57;7.28;;;2.80;;
28934;SDS011;16044;52.726;-2.108;2023-03-01T00:36:29;13.60;;;4.50;;
28934;SDS011;16044;52.726;-2.108;2023-03-01T00:38:59;13.98;;;4.20;;
28934;SDS011;16044;52.726;-2.108;2023-03-01T00:41:26;8.82;;;4.63;;
28934;SDS011;16044;52.726;-2.108;2023-03-01T00:43:53;16.02;;;4.32;;
28934;SDS011;16044;52.726;-2.108;2023-03-01T00:46:22;13.43;;;5.00;;
28934;SDS011;16044;52.726;-2.108;2023-03-01T00:48:51;12.95;;;4.25;;
28934;SDS011;16044;52.726;-2.108;2023-03-01T00:51:20;12.27;;;4.40;;
28934;SDS011;16044;52.726;-2.108;2023-03-01T00:53:50;13.05;;;4.07;;
28934;SDS011;16044;52.726;-2.108;2023-03-01T00:56:23;11.45;;;4.38;;
28934;SDS011;16044;52.726;-2.108;2023-03-01T00:58:51;12.10;;;4.57;;
28934;SDS011;16044;52.726;-2.108;2023-03-01T01:01:19;9.45;;;4.28;;
28934;SDS011;16044;52.726;-2.108;2023-03-01T01:03:50;15.43;;;5.15;;
28934;SDS011;16044;52.726;-2.108;2023-03-01T01:06:27;11.93;;;4.88;;
28934;SDS011;16044;52.726;-2.108;2023-03-01T01:08:58;10.98;;;4.68;;
28934;SDS011;16044;52.726;-2.108;2023-03-01T01:11:27;11.23;;;4.85;;
28934;SDS011;16044;52.726;-2.108;2023-03-01T01:13:56;10.02;;;4.43;;
28934;SDS011;16044;52.726;-2.108;2023-03-01T01:16:24;12.63;;;5.45;;
28934;SDS011;16044;52.726;-2.108;2023-03-01T01:18:54;10.23;;;4.90;;
28934;SDS011;16044;52.726;-2.108;2023-03-01T01:21:23;11.80;;;4.60;;
28934;SDS011;16044;52.726;-2.108;2023-03-01T01:23:51;11.13;;;5.13;;
28934;SDS011;16044;52.726;-2.108;2023-03-01T01:26:20;11.48;;;5.35;;
28934;SDS011;16044;52.726;-2.108;2023-03-01T01:28:51;14.15;;;5.93;;
28934;SDS011;16044;52.726;-2.108;2023-03-01T01:31:18;15.25;;;5.90;;
28934;SDS011;16044;52.726;-2.108;2023-03-01T01:33:46;14.77;;;5.72;;
28934;SDS011;16044;52.726;-2.108;2023-03-01T01:36:13;12.77;;;6.05;;
28934;SDS011;16044;52.726;-2.108;2023-03-01T01:38:40;14.88;;;5.32;;
28934;SDS011;16044;52.726;-2.108;2023-03-01T01:41:09;11.25;;;5.80;;
28934;SDS011;16044;52.726;-2.108;2023-03-01T01:43:44;11.27;;;5.20;;
28934;SDS011;16044;52.726;-2.108;2023-03-01T01:46:36;11.95;;;5.95;;
28934;SDS011;16044;52.726;-2.108;2023-03-01T01:49:07;12.38;;;5.40;;
28934;SDS011;16044;52.726;-2.108;2023-03-01T01:52:00;12.15;;;4.97;;
28934;SDS011;16044;52.726;-2.108;2023-03-01T01:54:40;9.75;;;5.00;;
28934;SDS011;16044;52.726;-2.108;2023-03-01T01:57:14;10.30;;;5.07;;
28934;SDS011;16044;52.726;-2.108;2023-03-01T01:59:49;10.23;;;4.75;;
28934;SDS011;16044;52.726;-2.108;2023-03-01T02:02:19;9.80;;;4.35;;
28934;SDS011;16044;52.726;-2.108;2023-03-01T02:04:48;13.70;;;4.50;;
28934;SDS011;16044;52.726;-2.108;2023-03-01T02:07:20;10.30;;;4.25;;
28934;SDS011;16044;52.726;-2.108;2023-03-01T02:09:51;7.53;;;3.92;;
28934;SDS011;16044;52.726;-2.108;2023-03-01T02:12:20;8.88;;;4.10;;
28934;SDS011;16044;52.726;-2.108;2023-03-01T02:14:50;7.93;;;3.75;;
28934;SDS011;16044;52.726;-2.108;2023-03-01T02:17:17;8.82;;;3.90;;
28934;SDS011;16044;52.726;-2.108;2023-03-01T02:22:20;7.47;;;3.47;;
28934;SDS011;16044;52.726;-2.108;2023-03-01T02:25:12;9.80;;;3.80;;
28934;SDS011;16044;52.726;-2.108;2023-03-01T02:30:36;10.00;;;3.58;;
28934;SDS011;16044;52.726;-2.108;2023-03-01T02:33:03;13.00;;;3.97;;
28934;SDS011;16044;52.726;-2.108;2023-03-01T02:35:32;10.00;;;3.42;;
28934;SDS011;16044;52.726;-2.108;2023-03-01T02:38:03;8.25;;;2.95;;
28934;SDS011;16044;52.726;-2.108;2023-03-01T02:40:34;8.95;;;2.95;;
28934;SDS011;16044;52.726;-2.108;2023-03-01T02:43:04;6.93;;;2.72;;
28934;SDS011;16044;52.726;-2.108;2023-03-01T02:45:36;10.02;;;2.78;;
28934;SDS011;16044;52.726;-2.108;2023-03-01T02:48:03;8.98;;;2.92;;
28934;SDS011;16044;52.726;-2.108;2023-03-01T02:53:11;7.40;;;2.70;;
28934;SDS011;16044;52.726;-2.108;2023-03-01T02:55:44;7.75;;;2.35;;
28934;SDS011;16044;52.726;-2.108;2023-03-01T02:58:11;6.53;;;2.40;;
28934;SDS011;16044;52.726;-2.108;2023-03-01T03:00:40;7.22;;;2.30;;
28934;SDS011;16044;52.726;-2.108;2023-03-01T03:03:13;5.15;;;2.40;;
28934;SDS011;16044;52.726;-2.108;2023-03-01T03:05:46;8.05;;;2.80;;
28934;SDS011;16044;52.726;-2.108;2023-03-01T03:08:14;7.68;;;3.28;;
28934;SDS011;16044;52.726;-2.108;2023-03-01T03:10:50;7.82;;;2.78;;
28934;SDS011;16044;52.726;-2.108;2023-03-01T03:13:17;10.13;;;3.20;;
28934;SDS011;16044;52.726;-2.108;2023-03-01T03:15:45;6.15;;;2.65;;
28934;SDS011;16044;52.726;-2.108;2023-03-01T03:18:13;8.80;;;3.00;;
28934;SDS011;16044;52.726;-2.108;2023-03-01T03:20:43;8.85;;;3.13;;
28934;SDS011;16044;52.726;-2.108;2023-03-01T03:23:11;10.95;;;3.00;;
28934;SDS011;16044;52.726;-2.108;2023-03-01T03:25:39;7.38;;;3.30;;
28934;SDS011;16044;52.726;-2.108;2023-03-01T03:28:06;10.85;;;3.85;;
28934;SDS011;16044;52.726;-2.108;2023-03-01T03:30:37;11.15;;;4.00;;
28934;SDS011;16044;52.726;-2.108;2023-03-01T03:33:07;11.40;;;3.95;;
28934;SDS011;16044;52.726;-2.108;2023-03-01T03:35:48;9.95;;;3.65;;
28934;SDS011;16044;52.726;-2.108;2023-03-01T03:38:17;5.63;;;3.50;;
28934;SDS011;16044;52.726;-2.108;2023-03-01T03:40:49;9.07;;;3.63;;
28934;SDS011;16044;52.726;-2.108;2023-03-01T03:43:32;6.65;;;3.42;;
28934;SDS011;16044;52.726;-2.108;2023-03-01T03:46:02;8.73;;;3.70;;
28934;SDS011;16044;52.726;-2.108;2023-03-01T03:48:33;9.27;;;3.58;;
28934;SDS011;16044;52.726;-2.108;2023-03-01T03:51:11;10.98;;;3.70;;
28934;SDS011;16044;52.726;-2.108;2023-03-01T03:53:42;8.65;;;3.95;;
28934;SDS011;16044;52.726;-2.108;2023-03-01T03:56:09;8.13;;;3.80;;
28934;SDS011;16044;52.726;-2.108;2023-03-01T03:58:37;9.32;;;4.35;;
28934;SDS011;16044;52.726;-2.108;2023-03-01T04:01:04;8.52;;;3.67;;
28934;SDS011;16044;52.726;-2.108;2023-03-01T04:03:32;8.40;;;3.83;;
28934;SDS011;16044;52.726;-2.108;2023-03-01T04:06:01;8.25;;;4.05;;
28934;SDS011;16044;52.726;-2.108;2023-03-01T04:08:30;8.65;;;4.13;;
28934;SDS011;16044;52.726;-2.108;2023-03-01T04:10:59;10.35;;;4.05;;
28934;SDS011;16044;52.726;-2.108;2023-03-01T04:13:48;9.52;;;3.33;;
28934;SDS011;16044;52.726;-2.108;2023-03-01T04:16:15;10.68;;;3.95;;
28934;SDS011;16044;52.726;-2.108;2023-03-01T04:18:42;8.90;;;3.63;;
28934;SDS011;16044;52.726;-2.108;2023-03-01T04:21:09;7.40;;;3.80;;
28934;SDS011;16044;52.726;-2.108;2023-03-01T04:23:37;8.65;;;3.60;;
28934;SDS011;16044;52.726;-2.108;2023-03-01T04:26:04;10.73;;;3.60;;
28934;SDS011;16044;52.726;-2.108;2023-03-01T04:28:33;7.22;;;3.50;;
28934;SDS011;16044;52.726;-2.108;2023-03-01T04:31:05;8.18;;;3.50;;
28934;SDS011;16044;52.726;-2.108;2023-03-01T04:33:50;8.27;;;3.72;;
28934;SDS011;16044;52.726;-2.108;2023-03-01T04:36:21;8.30;;;3.00;;
28934;SDS011;16044;52.726;-2.108;2023-03-01T04:38:51;4.15;;;2.55;;
28934;SDS011;16044;52.726;-2.108;2023-03-01T04:41:19;7.35;;;2.50;;
28934;SDS011;16044;52.726;-2.108;2023-03-01T04:43:49;3.60;;;1.60;;
28934;SDS011;16044;52.726;-2.108;2023-03-01T04:46:17;6.38;;;1.67;;
28934;SDS011;16044;52.726;-2.108;2023-03-01T04:48:46;3.33;;;1.15;;
28934;SDS011;16044;52.726;-2.108;2023-03-01T04:51:16;4.78;;;1.35;;
28934;SDS011;16044;52.726;-2.108;2023-03-01T04:53:44;6.90;;;1.90;;
28934;SDS011;16044;52.726;-2.108;2023-03-01T04:56:12;4.18;;;1.17;;
28934;SDS011;16044;52.726;-2.108;2023-03-01T04:58:42;3.95;;;1.48;;
28934;SDS011;16044;52.726;-2.108;2023-03-01T05:01:10;3.17;;;1.30;;
28934;SDS011;16044;52.726;-2.108;2023-03-01T05:03:46;7.25;;;1.40;;
28934;SDS011;16044;52.726;-2.108;2023-03-01T05:06:15;7.25;;;1.63;;
28934;SDS011;16044;52.726;-2.108;2023-03-01T05:08:45;6.03;;;1.65;;
28934;SDS011;16044;52.726;-2.108;2023-03-01T05:11:12;8.02;;;1.70;;
28934;SDS011;16044;52.726;-2.108;2023-03-01T05:13:39;6.80;;;1.63;;
28934;SDS011;16044;52.726;-2.108;2023-03-01T05:16:07;5.00;;;1.60;;
28934;SDS011;16044;52.726;-2.108;2023-03-01T05:18:39;7.95;;;1.73;;
28934;SDS011;16044;52.726;-2.108;2023-03-01T05:21:11;7.60;;;1.98;;
28934;SDS011;16044;52.726;-2.108;2023-03-01T05:23:43;6.32;;;1.42;;
28934;SDS011;16044;52.726;-2.108;2023-03-01T05:26:11;8.45;;;1.90;;
28934;SDS011;16044;52.726;-2.108;2023-03-01T05:28:53;4.13;;;1.88;;
28934;SDS011;16044;52.726;-2.108;2023-03-01T05:31:25;8.25;;;2.17;;
28934;SDS011;16044;52.726;-2.108;2023-03-01T05:33:53;4.05;;;1.60;;
28934;SDS011;16044;52.726;-2.108;2023-03-01T05:36:19;4.45;;;1.70;;
28934;SDS011;16044;52.726;-2.108;2023-03-01T05:38:47;4.60;;;2.03;;
28934;SDS011;16044;52.726;-2.108;2023-03-01T05:41:14;5.18;;;2.00;;
28934;SDS011;16044;52.726;-2.108;2023-03-01T05:43:43;11.05;;;2.35;;
28934;SDS011;16044;52.726;-2.108;2023-03-01T05:46:11;6.53;;;2.60;;
28934;SDS011;16044;52.726;-2.108;2023-03-01T05:48:39;7.38;;;2.30;;
28934;SDS011;16044;52.726;-2.108;2023-03-01T05:51:06;5.82;;;2.13;;
28934;SDS011;16044;52.726;-2.108;2023-03-01T05:53:33;4.28;;;2.35;;
28934;SDS011;16044;52.726;-2.108;2023-03-01T05:56:02;5.97;;;2.33;;
28934;SDS011;16044;52.726;-2.108;2023-03-01T05:58:30;5.00;;;1.90;;
28934;SDS011;16044;52.726;-2.108;2023-03-01T06:00:58;7.20;;;2.65;;
28934;SDS011;16044;52.726;-2.108;2023-03-01T06:03:24;4.72;;;2.08;;
28934;SDS011;16044;52.726;-2.108;2023-03-01T06:05:55;6.45;;;2.00;;
28934;SDS011;16044;52.726;-2.108;2023-03-01T06:08:23;8.80;;;2.40;;
28934;SDS011;16044;52.726;-2.108;2023-03-01T06:10:52;6.72;;;2.42;;
28934;SDS011;16044;52.726;-2.108;2023-03-01T06:13:20;4.65;;;2.45;;
28934;SDS011;16044;52.726;-2.108;2023-03-01T06:15:47;4.13;;;2.17;;
28934;SDS011;16044;52.726;-2.108;2023-03-01T06:18:14;4.70;;;2.20;;
28934;SDS011;16044;52.726;-2.108;2023-03-01T06:20:41;6.13;;;2.35;;
28934;SDS011;16044;52.726;-2.108;2023-03-01T06:23:08;6.18;;;2.70;;
28934;SDS011;16044;52.726;-2.108;2023-03-01T06:25:35;5.95;;;2.38;;
28934;SDS011;16044;52.726;-2.108;2023-03-01T06:28:04;5.63;;;2.40;;
28934;SDS011;16044;52.726;-2.108;2023-03-01T06:30:30;8.73;;;2.53;;
28934;SDS011;16044;52.726;-2.108;2023-03-01T06:32:58;7.53;;;2.42;;
28934;SDS011;16044;52.726;-2.108;2023-03-01T06:35:27;8.35;;;2.17;;
28934;SDS011;16044;52.726;-2.108;2023-03-01T06:37:59;6.57;;;2.55;;
28934;SDS011;16044;52.726;-2.108;2023-03-01T06:40:28;8.73;;;2.33;;
28934;SDS011;16044;52.726;-2.108;2023-03-01T06:42:57;3.92;;;2.00;;
28934;SDS011;16044;52.726;-2.108;2023-03-01T06:45:25;10.48;;;2.22;;
28934;SDS011;16044;52.726;-2.108;2023-03-01T06:47:51;5.25;;;2.20;;
28934;SDS011;16044;52.726;-2.108;2023-03-01T06:50:18;7.53;;;2.50;;
28934;SDS011;16044;52.726;-2.108;2023-03-01T06:52:45;6.53;;;2.20;;
28934;SDS011;16044;52.726;-2.108;2023-03-01T06:55:11;7.70;;;2.42;;
28934;SDS011;16044;52.726;-2.108;2023-03-01T06:57:39;7.40;;;2.30;;
28934;SDS011;16044;52.726;-2.108;2023-03-01T07:00:07;6.25;;;2.40;;
28934;SDS011;16044;52.726;-2.108;2023-03-01T07:02:34;6.88;;;2.35;;
28934;SDS011;16044;52.726;-2.108;2023-03-01T07:05:01;7.75;;;2.80;;
28934;SDS011;16044;52.726;-2.108;2023-03-01T07:07:28;7.68;;;2.15;;
28934;SDS011;16044;52.726;-2.108;2023-03-01T07:09:56;6.00;;;2.38;;
28934;SDS011;16044;52.726;-2.108;2023-03-01T07:12:22;7.63;;;2.30;;
28934;SDS011;16044;52.726;-2.108;2023-03-01T07:14:50;6.78;;;2.47;;
28934;SDS011;16044;52.726;-2.108;2023-03-01T07:17:16;7.82;;;2.90;;
28934;SDS011;16044;52.726;-2.108;2023-03-01T07:19:45;7.53;;;2.83;;
28934;SDS011;16044;52.726;-2.108;2023-03-01T07:22:12;8.27;;;2.72;;
28934;SDS011;16044;52.726;-2.108;2023-03-01T07:24:38;8.55;;;2.63;;
28934;SDS011;16044;52.726;-2.108;2023-03-01T07:27:05;8.88;;;2.85;;
28934;SDS011;16044;52.726;-2.108;2023-03-01T07:29:32;5.75;;;2.70;;
28934;SDS011;16044;52.726;-2.108;2023-03-01T07:31:59;9.60;;;3.58;;
28934;SDS011;16044;52.726;-2.108;2023-03-01T07:34:26;7.35;;;3.40;;
28934;SDS011;16044;52.726;-2.108;2023-03-01T07:36:53;6.25;;;2.70;;
28934;SDS011;16044;52.726;-2.108;2023-03-01T07:39:20;8.40;;;3.65;;
28934;SDS011;16044;52.726;-2.108;2023-03-01T07:41:49;9.35;;;3.53;;
28934;SDS011;16044;52.726;-2.108;2023-03-01T07:44:17;6.82;;;3.88;;
28934;SDS011;16044;52.726;-2.108;2023-03-01T07:46:44;9.55;;;3.97;;
28934;SDS011;16044;52.726;-2.108;2023-03-01T07:49:11;8.55;;;4.28;;
28934;SDS011;16044;52.726;-2.108;2023-03-01T07:51:37;8.63;;;4.05;;
28934;SDS011;16044;52.726;-2.108;2023-03-01T07:54:04;9.00;;;3.97;;
28934;SDS011;16044;52.726;-2.108;2023-03-01T07:56:31;10.40;;;4.05;;
28934;SDS011;16044;52.726;-2.108;2023-03-01T07:58:59;7.90;;;3.92;;
28934;SDS011;16044;52.726;-2.108;2023-03-01T08:01:26;9.00;;;3.88;;
28934;SDS011;16044;52.726;-2.108;2023-03-01T08:03:53;7.65;;;3.45;;
28934;SDS011;16044;52.726;-2.108;2023-03-01T08:06:20;7.95;;;3.70;;
28934;SDS011;16044;52.726;-2.108;2023-03-01T08:08:46;5.82;;;3.47;;
28934;SDS011;16044;52.726;-2.108;2023-03-01T08:11:14;6.32;;;3.30;;
28934;SDS011;16044;52.726;-2.108;2023-03-01T08:13:42;6.22;;;3.00;;
28934;SDS011;16044;52.726;-2.108;2023-03-01T08:16:11;9.27;;;3.20;;
28934;SDS011;16044;52.726;-2.108;2023-03-01T08:18:41;12.70;;;3.30;;
28934;SDS011;16044;52.726;-2.108;2023-03-01T08:21:10;9.75;;;3.10;;
28934;SDS011;16044;52.726;-2.108;2023-03-01T08:23:39;6.50;;;3.15;;
28934;SDS011;16044;52.726;-2.108;2023-03-01T08:26:11;7.32;;;3.22;;
28934;SDS011;16044;52.726;-2.108;2023-03-01T08:28:46;6.30;;;3.08;;
28934;SDS011;16044;52.726;-2.108;2023-03-01T08:31:16;7.10;;;2.50;;
28934;SDS011;16044;52.726;-2.108;2023-03-01T08:33:53;6.30;;;2.95;;
28934;SDS011;16044;52.726;-2.108;2023-03-01T08:36:24;6.85;;;3.00;;
28934;SDS011;16044;52.726;-2.108;2023-03-01T08:38:58;8.82;;;3.05;;
28934;SDS011;16044;52.726;-2.108;2023-03-01T08:41:26;9.70;;;3.20;;
28934;SDS011;16044;52.726;-2.108;2023-03-01T08:43:54;7.60;;;3.35;;
28934;SDS011;16044;52.726;-2.108;2023-03-01T08:46:26;9.80;;;3.88;;
28934;SDS011;16044;52.726;-2.108;2023-03-01T08:48:58;9.63;;;3.95;;
28934;SDS011;16044;52.726;-2.108;2023-03-01T08:51:26;7.30;;;3.75;;
28934;SDS011;16044;52.726;-2.108;2023-03-01T08:53:53;11.35;;;4.55;;
28934;SDS011;16044;52.726;-2.108;2023-03-01T08:56:20;10.65;;;4.95;;
28934;SDS011;16044;52.726;-2.108;2023-03-01T08:58:47;14.60;;;5.22;;
28934;SDS011;16044;52.726;-2.108;2023-03-01T09:01:16;13.40;;;5.53;;
28934;SDS011;16044;52.726;-2.108;2023-03-01T09:03:45;12.52;;;5.40;;
28934;SDS011;16044;52.726;-2.108;2023-03-01T09:06:13;9.55;;;5.47;;
28934;SDS011;16044;52.726;-2.108;2023-03-01T09:08:43;11.00;;;5.30;;
28934;SDS011;16044;52.726;-2.108;2023-03-01T09:11:14;10.98;;;5.50;;
28934;SDS011;16044;52.726;-2.108;2023-03-01T09:13:45;13.68;;;5.60;;
28934;SDS011;16044;52.726;-2.108;2023-03-01T09:16:14;9.20;;;4.72;;
28934;SDS011;16044;52.726;-2.108;2023-03-01T09:18:44;11.57;;;5.60;;
28934;SDS011;16044;52.726;-2.108;2023-03-01T09:21:13;9.77;;;5.43;;
28934;SDS011;16044;52.726;-2.108;2023-03-01T09:23:50;11.43;;;5.55;;
28934;SDS011;16044;52.726;-2.108;2023-03-01T09:26:17;9.75;;;4.53;;
28934;SDS011;16044;52.726;-2.108;2023-03-01T09:28:49;9.52;;;4.88;;
28934;SDS011;16044;52.726;-2.108;2023-03-01T09:31:19;8.95;;;4.82;;
28934;SDS011;16044;52.726;-2.108;2023-03-01T09:33:48;9.80;;;4.68;;
28934;SDS011;16044;52.726;-2.108;2023-03-01T09:36:19;5.97;;;4.10;;
28934;SDS011;16044;52.726;-2.108;2023-03-01T09:38:49;8.93;;;4.22;;
28934;SDS011;16044;52.726;-2.108;2023-03-01T09:47:21;6.00;;;2.78;;
28934;SDS011;16044;52.726;-2.108;2023-03-01T09:50:03;9.70;;;3.50;;
28934;SDS011;16044;52.726;-2.108;2023-03-01T09:52:39;7.95;;;2.95;;
28934;SDS011;16044;52.726;-2.108;2023-03-01T09:55:10;6.10;;;2.90;;
28934;SDS011;16044;52.726;-2.108;2023-03-01T10:00:59;11.13;;;3.30;;
28934;SDS011;16044;52.726;-2.108;2023-03-01T10:03:53;11.75;;;3.40;;
28934;SDS011;16044;52.726;-2.108;2023-03-01T10:06:26;10.82;;;3.03;;
28934;SDS011;16044;52.726;-2.108;2023-03-01T10:09:16;7.38;;;2.78;;
28934;SDS011;16044;52.726;-2.108;2023-03-01T10:11:45;8.38;;;3.00;;
28934;SDS011;16044;52.726;-2.108;2023-03-01T10:17:15;7.50;;;3.10;;
28934;SDS011;16044;52.726;-2.108;2023-03-01T10:20:15;10.02;;;3.35;;
28934;SDS011;16044;52.726;-2.108;2023-03-01T10:22:49;8.52;;;3.00;;
28934;SDS011;16044;52.726;-2.108;2023-03-01T10:31:38;7.53;;;3.05;;
28934;SDS011;16044;52.726;-2.108;2023-03-01T10:34:19;9.60;;;2.85;;
28934;SDS011;16044;52.726;-2.108;2023-03-01T10:36:50;10.63;;;2.45;;
28934;SDS011;16044;52.726;-2.108;2023-03-01T10:39:20;9.00;;;2.10;;
28934;SDS011;16044;52.726;-2.108;2023-03-01T10:44:40;9.68;;;2.55;;
28934;SDS011;16044;52.726;-2.108;2023-03-01T10:47:14;10.52;;;2.13;;
28934;SDS011;16044;52.726;-2.108;2023-03-01T10:49:51;9.02;;;2.00;;
28934;SDS011;16044;52.726;-2.108;2023-03-01T10:52:23;6.82;;;1.85;;
28934;SDS011;16044;52.726;-2.108;2023-03-01T10:55:03;6.55;;;1.70;;
28934;SDS011;16044;52.726;-2.108;2023-03-01T10:58:37;4.32;;;1.48;;
28934;SDS011;16044;52.726;-2.108;2023-03-01T11:03:23;6.45;;;1.75;;
28934;SDS011;16044;52.726;-2.108;2023-03-01T11:06:02;8.20;;;1.65;;
28934;SDS011;16044;52.726;-2.108;2023-03-01T11:08:49;11.70;;;1.60;;
28934;SDS011;16044;52.726;-2.108;2023-03-01T11:11:24;14.25;;;1.85;;
28934;SDS011;16044;52.726;-2.108;2023-03-01T11:14:13;7.57;;;1.40;;
28934;SDS011;16044;52.726;-2.108;2023-03-01T11:17:13;9.93;;;1.67;;
28934;SDS011;16044;52.726;-2.108;2023-03-01T11:19:59;6.80;;;1.60;;
28934;SDS011;16044;52.726;-2.108;2023-03-01T11:22:42;6.72;;;1.42;;
28934;SDS011;16044;52.726;-2.108;2023-03-01T11:25:18;6.53;;;1.30;;
28934;SDS011;16044;52.726;-2.108;2023-03-01T11:27:51;8.18;;;1.35;;
28934;SDS011;16044;52.726;-2.108;2023-03-01T11:32:54;5.68;;;1.55;;
28934;SDS011;16044;52.726;-2.108;2023-03-01T11:35:32;8.98;;;1.60;;
28934;SDS011;16044;52.726;-2.108;2023-03-01T11:38:09;6.35;;;1.50;;
28934;SDS011;16044;52.726;-2.108;2023-03-01T12:03:46;5.88;;;1.90;;
28934;SDS011;16044;52.726;-2.108;2023-03-01T12:06:56;8.77;;;1.70;;
28934;SDS011;16044;52.726;-2.108;2023-03-01T12:09:36;7.72;;;1.65;;
28934;SDS011;16044;52.726;-2.108;2023-03-01T12:19:11;9.13;;;1.80;;
28934;SDS011;16044;52.726;-2.108;2023-03-01T12:22:17;8.48;;;1.90;;
28934;SDS011;16044;52.726;-2.108;2023-03-01T12:51:36;8.38;;;2.17;;
28934;SDS011;16044;52.726;-2.108;2023-03-01T12:54:07;7.95;;;1.88;;
28934;SDS011;16044;52.726;-2.108;2023-03-01T12:56:43;9.10;;;2.00;;
28934;SDS011;16044;52.726;-2.108;2023-03-01T13:05:00;7.70;;;2.38;;
28934;SDS011;16044;52.726;-2.108;2023-03-01T13:10:56;10.40;;;2.20;;
28934;SDS011;16044;52.726;-2.108;2023-03-01T13:13:43;9.07;;;2.25;;
28934;SDS011;16044;52.726;-2.108;2023-03-01T13:19:08;9.02;;;2.60;;
28934;SDS011;16044;52.726;-2.108;2023-03-01T13:21:42;8.02;;;2.53;;
28934;SDS011;16044;52.726;-2.108;2023-03-01T13:24:28;9.75;;;3.53;;
28934;SDS011;16044;52.726;-2.108;2023-03-01T13:29:55;9.68;;;3.92;;
28934;SDS011;16044;52.726;-2.108;2023-03-01T13:32:30;10.00;;;3.75;;
28934;SDS011;16044;52.726;-2.108;2023-03-01T13:37:37;9.95;;;3.33;;
28934;SDS011;16044;52.726;-2.108;2023-03-01T13:40:56;10.52;;;3.90;;
28934;SDS011;16044;52.726;-2.108;2023-03-01T13:42:52;9.25;;;3.25;;
28934;SDS011;16044;52.726;-2.108;2023-03-01T13:45:40;12.30;;;3.80;;
28934;SDS011;16044;52.726;-2.108;2023-03-01T13:51:00;6.57;;;2.90;;
28934;SDS011;16044;52.726;-2.108;2023-03-01T13:53:45;8.82;;;2.63;;
28934;SDS011;16044;52.726;-2.108;2023-03-01T13:56:18;6.90;;;2.60;;
28934;SDS011;16044;52.726;-2.108;2023-03-01T13:59:04;5.72;;;2.28;;
28934;SDS011;16044;52.726;-2.108;2023-03-01T14:01:39;5.57;;;2.53;;
28934;SDS011;16044;52.726;-2.108;2023-03-01T14:04:22;5.53;;;2.33;;
28934;SDS011;16044;52.726;-2.108;2023-03-01T14:09:47;11.43;;;2.65;;
28934;SDS011;16044;52.726;-2.108;2023-03-01T14:15:55;7.47;;;3.10;;
28934;SDS011;16044;52.726;-2.108;2023-03-01T14:19:00;5.53;;;2.53;;
28934;SDS011;16044;52.726;-2.108;2023-03-01T14:21:33;7.50;;;2.67;;
28934;SDS011;16044;52.726;-2.108;2023-03-01T14:24:01;4.80;;;2.33;;
28934;SDS011;16044;52.726;-2.108;2023-03-01T14:26:29;5.70;;;2.40;;
28934;SDS011;16044;52.726;-2.108;2023-03-01T14:28:58;6.68;;;2.30;;
28934;SDS011;16044;52.726;-2.108;2023-03-01T14:34:19;6.88;;;2.88;;
28934;SDS011;16044;52.726;-2.108;2023-03-01T14:36:48;9.23;;;3.25;;
28934;SDS011;16044;52.726;-2.108;2023-03-01T14:39:34;8.68;;;2.72;;
28934;SDS011;16044;52.726;-2.108;2023-03-01T14:42:00;7.63;;;2.42;;
28934;SDS011;16044;52.726;-2.108;2023-03-01T14:44:41;7.53;;;2.22;;
28934;SDS011;16044;52.726;-2.108;2023-03-01T14:47:44;5.65;;;1.50;;
28934;SDS011;16044;52.726;-2.108;2023-03-01T14:50:24;5.18;;;1.55;;
28934;SDS011;16044;52.726;-2.108;2023-03-01T14:52:56;6.70;;;1.70;;
28934;SDS011;16044;52.726;-2.108;2023-03-01T14:55:33;5.32;;;1.63;;
28934;SDS011;16044;52.726;-2.108;2023-03-01T14:58:04;5.40;;;1.90;;
28934;SDS011;16044;52.726;-2.108;2023-03-01T15:00:36;7.70;;;1.80;;
28934;SDS011;16044;52.726;-2.108;2023-03-01T15:03:47;6.07;;;1.70;;
28934;SDS011;16044;52.726;-2.108;2023-03-01T15:06:02;5.57;;;1.88;;
28934;SDS011;16044;52.726;-2.108;2023-03-01T15:08:32;7.57;;;1.77;;
28934;SDS011;16044;52.726;-2.108;2023-03-01T15:11:04;7.15;;;1.77;;
28934;SDS011;16044;52.726;-2.108;2023-03-01T15:13:51;7.75;;;1.63;;
28934;SDS011;16044;52.726;-2.108;2023-03-01T15:16:32;13.05;;;3.75;;
28934;SDS011;16044;52.726;-2.108;2023-03-01T15:19:01;7.05;;;1.77;;
28934;SDS011;16044;52.726;-2.108;2023-03-01T15:21:33;8.65;;;1.55;;
28934;SDS011;16044;52.726;-2.108;2023-03-01T15:24:06;8.90;;;1.75;;
28934;SDS011;16044;52.726;-2.108;2023-03-01T15:26:50;5.95;;;2.00;;
28934;SDS011;16044;52.726;-2.108;2023-03-01T15:29:32;8.98;;;2.20;;
28934;SDS011;16044;52.726;-2.108;2023-03-01T15:35:01;7.90;;;2.33;;
28934;SDS011;16044;52.726;-2.108;2023-03-01T15:38:36;13.88;;;4.25;;
28934;SDS011;16044;52.726;-2.108;2023-03-01T15:41:27;11.05;;;2.88;;
28934;SDS011;16044;52.726;-2.108;2023-03-01T15:43:58;23.00;;;7.15;;
28934;SDS011;16044;52.726;-2.108;2023-03-01T15:46:28;22.27;;;6.45;;
28934;SDS011;16044;52.726;-2.108;2023-03-01T15:49:00;16.15;;;4.35;;
28934;SDS011;16044;52.726;-2.108;2023-03-01T15:51:33;19.58;;;6.10;;
28934;SDS011;16044;52.726;-2.108;2023-03-01T15:54:10;15.50;;;4.25;;
28934;SDS011;16044;52.726;-2.108;2023-03-01T15:56:45;14.75;;;4.03;;
28934;SDS011;16044;52.726;-2.108;2023-03-01T15:59:12;19.50;;;5.78;;
28934;SDS011;16044;52.726;-2.108;2023-03-01T16:01:40;14.45;;;3.17;;
28934;SDS011;16044;52.726;-2.108;2023-03-01T16:04:11;12.75;;;3.95;;
28934;SDS011;16044;52.726;-2.108;2023-03-01T16:06:47;12.88;;;1.83;;
28934;SDS011;16044;52.726;-2.108;2023-03-01T16:09:24;5.53;;;1.27;;
28934;SDS011;16044;52.726;-2.108;2023-03-01T16:11:52;8.10;;;2.35;;
28934;SDS011;16044;52.726;-2.108;2023-03-01T16:14:20;6.38;;;1.30;;
28934;SDS011;16044;52.726;-2.108;2023-03-01T16:16:48;7.28;;;1.45;;
28934;SDS011;16044;52.726;-2.108;2023-03-01T16:19:15;9.73;;;1.00;;
28934;SDS011;16044;52.726;-2.108;2023-03-01T16:21:42;3.90;;;1.13;;
28934;SDS011;16044;52.726;-2.108;2023-03-01T16:24:13;2.72;;;1.00;;
28934;SDS011;16044;52.726;-2.108;2023-03-01T16:26:41;3.80;;;1.10;;
28934;SDS011;16044;52.726;-2.108;2023-03-01T16:29:08;6.53;;;1.60;;
28934;SDS011;16044;52.726;-2.108;2023-03-01T16:31:35;6.60;;;2.10;;
28934;SDS011;16044;52.726;-2.108;2023-03-01T16:34:03;6.80;;;2.13;;
28934;SDS011;16044;52.726;-2.108;2023-03-01T16:36:29;7.32;;;2.13;;
28934;SDS011;16044;52.726;-2.108;2023-03-01T16:38:59;10.13;;;2.78;;
28934;SDS011;16044;52.726;-2.108;2023-03-01T16:41:27;17.17;;;6.25;;
28934;SDS011;16044;52.726;-2.108;2023-03-01T16:43:54;7.45;;;2.75;;
28934;SDS011;16044;52.726;-2.108;2023-03-01T16:46:23;6.45;;;2.40;;
28934;SDS011;16044;52.726;-2.108;2023-03-01T16:48:52;11.85;;;5.38;;
28934;SDS011;16044;52.726;-2.108;2023-03-01T16:51:20;14.23;;;2.70;;
28934;SDS011;16044;52.726;-2.108;2023-03-01T16:53:48;8.02;;;2.42;;
28934;SDS011;16044;52.726;-2.108;2023-03-01T16:56:16;5.30;;;2.28;;
28934;SDS011;16044;52.726;-2.108;2023-03-01T16:58:44;6.70;;;1.52;;
28934;SDS011;16044;52.726;-2.108;2023-03-01T17:01:13;4.30;;;1.58;;
28934;SDS011;16044;52.726;-2.108;2023-03-01T17:03:44;8.73;;;1.90;;